createdAt,value
2018-04-22T00:00:06.569Z,18.18
2018-04-22T00:01:07.066Z,18.03
2018-04-22T00:02:07.069Z,18.03
2018-04-22T00:03:06.317Z,18.08
2018-04-22T00:04:06.247Z,18.07
2018-04-22T00:05:06.172Z,18.07
2018-04-22T00:06:06.105Z,18.04
2018-04-22T00:07:06.028Z,17.92
2018-04-22T00:08:05.954Z,17.95
2018-04-22T00:09:05.894Z,17.97
2018-04-22T00:10:05.818Z,17.98
2018-04-22T00:11:07.069Z,17.97
2018-04-22T00:12:05.671Z,18.00
2018-04-22T00:13:05.591Z,17.98
2018-04-22T00:14:05.519Z,17.98
2018-04-22T00:15:05.464Z,18.01
2018-04-22T00:16:05.375Z,17.89
2018-04-22T00:17:05.311Z,17.90
2018-04-22T00:18:05.227Z,17.90
2018-04-22T00:19:05.155Z,17.90
2018-04-22T00:20:05.085Z,17.97
2018-04-22T00:21:05.020Z,17.94
2018-04-22T00:22:04.936Z,17.90
2018-04-22T00:23:04.861Z,17.89
2018-04-22T00:24:04.793Z,17.90
2018-04-22T00:25:04.718Z,17.90
2018-04-22T00:26:04.643Z,17.92
2018-04-22T00:27:05.077Z,17.85
2018-04-22T00:28:04.522Z,17.83
2018-04-22T00:29:04.425Z,17.79
2018-04-22T00:30:04.353Z,17.83
2018-04-22T00:31:04.281Z,17.87
2018-04-22T00:32:04.215Z,17.82
2018-04-22T00:33:05.574Z,17.78
2018-04-22T00:34:04.062Z,17.79
2018-04-22T00:35:03.991Z,17.76
2018-04-22T00:36:03.932Z,17.70
2018-04-22T00:37:03.857Z,17.71
2018-04-22T00:38:04.577Z,17.72
2018-04-22T00:39:03.696Z,17.76
2018-04-22T00:40:03.625Z,17.80
2018-04-22T00:41:03.559Z,17.78
2018-04-22T00:42:03.477Z,17.72
2018-04-22T00:43:03.404Z,17.70
2018-04-22T00:44:03.334Z,17.72
2018-04-22T00:45:04.082Z,17.64
2018-04-22T00:46:03.187Z,17.67
2018-04-22T00:47:03.113Z,17.64
2018-04-22T00:48:03.053Z,17.65
2018-04-22T00:49:02.972Z,17.60
2018-04-22T00:50:02.897Z,17.68
2018-04-22T00:51:02.823Z,17.65
2018-04-22T00:52:02.750Z,17.60
2018-04-22T00:53:02.707Z,17.60
2018-04-22T00:54:02.603Z,17.56
2018-04-22T00:55:02.529Z,17.54
2018-04-22T00:56:03.085Z,17.51
2018-04-22T00:57:02.383Z,17.57
2018-04-22T00:58:02.312Z,17.52
2018-04-22T00:59:02.245Z,17.54
2018-04-22T01:00:02.167Z,17.52
2018-04-22T01:01:02.094Z,17.54
2018-04-22T01:02:02.020Z,17.51
2018-04-22T01:03:01.945Z,17.39
2018-04-22T01:04:01.872Z,17.38
2018-04-22T01:05:01.807Z,17.38
2018-04-22T01:06:01.731Z,17.39
2018-04-22T01:07:01.674Z,17.38
2018-04-22T01:08:02.088Z,17.41
2018-04-22T01:09:02.089Z,17.41
2018-04-22T01:10:01.433Z,17.33
2018-04-22T01:11:01.362Z,17.39
2018-04-22T01:12:01.289Z,17.39
2018-04-22T01:13:01.216Z,17.36
2018-04-22T01:14:01.143Z,17.42
2018-04-22T01:15:01.068Z,17.36
2018-04-22T01:16:00.998Z,17.29
2018-04-22T01:17:00.922Z,17.31
2018-04-22T01:18:00.856Z,17.33
2018-04-22T01:19:00.798Z,17.29
2018-04-22T01:20:00.701Z,17.34
2018-04-22T01:21:00.637Z,17.33
2018-04-22T01:22:00.561Z,17.29
2018-04-22T01:23:00.485Z,17.26
2018-04-22T01:24:00.415Z,17.31
2018-04-22T01:25:01.094Z,17.31
2018-04-22T01:26:00.268Z,17.31
2018-04-22T01:27:00.197Z,17.29
2018-04-22T01:28:00.121Z,17.26
2018-04-22T01:29:00.048Z,17.26
2018-04-22T01:29:59.980Z,17.22
2018-04-22T01:30:59.900Z,17.26
2018-04-22T01:32:00.614Z,17.24
2018-04-22T01:32:59.754Z,17.19
2018-04-22T01:33:59.686Z,17.22
2018-04-22T01:34:59.609Z,17.26
2018-04-22T01:35:59.533Z,17.22
2018-04-22T01:36:59.464Z,17.23
2018-04-22T01:37:59.388Z,17.22
2018-04-22T01:38:59.316Z,17.22
2018-04-22T01:39:59.242Z,17.23
2018-04-22T01:40:59.168Z,17.23
2018-04-22T01:41:59.098Z,17.27
2018-04-22T01:42:59.022Z,17.15
2018-04-22T01:43:58.951Z,17.19
2018-04-22T01:44:58.876Z,17.22
2018-04-22T01:45:58.807Z,17.14
2018-04-22T01:46:58.725Z,17.09
2018-04-22T01:47:58.664Z,17.11
2018-04-22T01:48:58.579Z,17.06
2018-04-22T01:49:59.604Z,17.06
2018-04-22T01:50:58.441Z,17.09
2018-04-22T01:51:58.362Z,17.09
2018-04-22T01:52:58.310Z,17.09
2018-04-22T01:53:58.213Z,17.09
2018-04-22T01:54:59.103Z,17.09
2018-04-22T01:55:58.617Z,16.97
2018-04-22T01:56:57.996Z,17.01
2018-04-22T01:57:57.922Z,17.02
2018-04-22T01:58:57.845Z,16.97
2018-04-22T01:59:57.772Z,16.93
2018-04-22T02:00:57.736Z,16.97
2018-04-22T02:01:57.626Z,16.91
2018-04-22T02:02:57.550Z,16.96
2018-04-22T02:03:57.478Z,16.93
2018-04-22T02:04:57.410Z,16.91
2018-04-22T02:05:57.330Z,16.93
2018-04-22T02:06:57.259Z,16.89
2018-04-22T02:07:57.182Z,16.86
2018-04-22T02:08:57.108Z,16.79
2018-04-22T02:09:57.035Z,16.87
2018-04-22T02:10:56.960Z,16.84
2018-04-22T02:11:56.956Z,16.78
2018-04-22T02:12:56.820Z,16.76
2018-04-22T02:13:56.740Z,16.78
2018-04-22T02:14:56.668Z,16.76
2018-04-22T02:15:56.597Z,16.81
2018-04-22T02:16:56.521Z,16.89
2018-04-22T02:17:56.446Z,16.86
2018-04-22T02:18:56.371Z,16.84
2018-04-22T02:19:56.306Z,16.79
2018-04-22T02:20:56.225Z,16.83
2018-04-22T02:21:56.150Z,16.76
2018-04-22T02:22:56.078Z,16.75
2018-04-22T02:23:56.002Z,16.74
2018-04-22T02:24:55.931Z,16.64
2018-04-22T02:25:55.859Z,16.78
2018-04-22T02:26:55.785Z,16.75
2018-04-22T02:27:55.712Z,16.72
2018-04-22T02:28:55.636Z,16.66
2018-04-22T02:29:55.564Z,16.68
2018-04-22T02:30:55.500Z,16.58
2018-04-22T02:31:55.414Z,16.64
2018-04-22T02:32:55.343Z,16.65
2018-04-22T02:33:55.290Z,16.57
2018-04-22T02:34:55.191Z,16.71
2018-04-22T02:35:55.118Z,16.66
2018-04-22T02:36:55.046Z,16.66
2018-04-22T02:37:54.990Z,16.60
2018-04-22T02:38:54.897Z,16.58
2018-04-22T02:39:54.826Z,16.61
2018-04-22T02:40:54.750Z,16.54
2018-04-22T02:41:54.675Z,16.58
2018-04-22T02:42:54.606Z,16.60
2018-04-22T02:43:54.529Z,16.58
2018-04-22T02:44:54.467Z,16.51
2018-04-22T02:45:54.383Z,16.56
2018-04-22T02:46:54.309Z,16.56
2018-04-22T02:47:54.232Z,16.56
2018-04-22T02:48:54.159Z,16.53
2018-04-22T02:49:54.084Z,16.53
2018-04-22T02:50:54.010Z,16.50
2018-04-22T02:51:53.937Z,16.53
2018-04-22T02:52:53.869Z,16.61
2018-04-22T02:53:53.789Z,16.51
2018-04-22T02:54:53.719Z,16.56
2018-04-22T02:55:53.669Z,16.56
2018-04-22T02:56:53.569Z,16.56
2018-04-22T02:57:53.498Z,16.57
2018-04-22T02:58:53.417Z,16.53
2018-04-22T02:59:53.356Z,16.51
2018-04-22T03:00:53.271Z,16.47
2018-04-22T03:01:53.199Z,16.53
2018-04-22T03:02:53.123Z,16.47
2018-04-22T03:03:53.056Z,16.46
2018-04-22T03:04:52.980Z,16.42
2018-04-22T03:05:52.909Z,16.38
2018-04-22T03:06:52.828Z,16.38
2018-04-22T03:07:52.754Z,16.38
2018-04-22T03:08:52.681Z,16.38
2018-04-22T03:09:52.605Z,16.39
2018-04-22T03:10:52.532Z,16.38
2018-04-22T03:11:52.457Z,16.38
2018-04-22T03:12:52.384Z,16.35
2018-04-22T03:13:52.309Z,16.42
2018-04-22T03:14:52.239Z,16.38
2018-04-22T03:15:52.165Z,16.29
2018-04-22T03:16:52.092Z,16.41
2018-04-22T03:17:52.025Z,16.32
2018-04-22T03:18:51.940Z,16.29
2018-04-22T03:19:51.880Z,16.21
2018-04-22T03:20:51.794Z,16.26
2018-04-22T03:21:51.718Z,16.23
2018-04-22T03:22:51.654Z,16.26
2018-04-22T03:23:51.572Z,16.17
2018-04-22T03:24:51.497Z,16.15
2018-04-22T03:25:51.467Z,16.15
2018-04-22T03:26:51.348Z,16.13
2018-04-22T03:27:51.273Z,16.09
2018-04-22T03:28:51.201Z,16.05
2018-04-22T03:29:51.129Z,16.04
2018-04-22T03:30:51.056Z,16.08
2018-04-22T03:31:50.979Z,16.00
2018-04-22T03:32:50.959Z,15.97
2018-04-22T03:33:50.833Z,15.92
2018-04-22T03:34:50.765Z,16.02
2018-04-22T03:35:50.679Z,16.00
2018-04-22T03:36:50.608Z,15.97
2018-04-22T03:37:50.533Z,15.98
2018-04-22T03:38:50.462Z,15.97
2018-04-22T03:39:50.387Z,15.97
2018-04-22T03:40:50.322Z,15.90
2018-04-22T03:41:50.242Z,15.86
2018-04-22T03:42:50.165Z,15.90
2018-04-22T03:43:50.090Z,15.77
2018-04-22T03:44:50.014Z,15.83
2018-04-22T03:45:49.942Z,15.73
2018-04-22T03:46:49.868Z,15.72
2018-04-22T03:47:49.797Z,15.73
2018-04-22T03:48:49.731Z,15.68
2018-04-22T03:49:49.645Z,15.72
2018-04-22T03:50:49.590Z,15.67
2018-04-22T03:51:49.499Z,15.70
2018-04-22T03:52:49.423Z,15.76
2018-04-22T03:53:49.357Z,15.72
2018-04-22T03:54:49.299Z,15.65
2018-04-22T03:55:49.202Z,15.73
2018-04-22T03:56:49.128Z,15.70
2018-04-22T03:57:49.052Z,15.82
2018-04-22T03:58:48.979Z,15.82
2018-04-22T03:59:48.902Z,15.79
2018-04-22T04:00:48.841Z,15.75
2018-04-22T04:01:48.753Z,15.72
2018-04-22T04:02:48.678Z,15.76
2018-04-22T04:03:48.605Z,15.75
2018-04-22T04:04:48.535Z,15.72
2018-04-22T04:05:48.458Z,15.64
2018-04-22T04:06:48.384Z,15.67
2018-04-22T04:07:48.315Z,15.75
2018-04-22T04:08:48.235Z,15.77
2018-04-22T04:09:48.162Z,15.79
2018-04-22T04:10:48.098Z,15.76
2018-04-22T04:11:48.010Z,15.65
2018-04-22T04:12:47.937Z,15.73
2018-04-22T04:13:47.863Z,15.72
2018-04-22T04:14:47.789Z,15.65
2018-04-22T04:15:47.715Z,15.75
2018-04-22T04:16:47.643Z,15.73
2018-04-22T04:17:47.569Z,15.75
2018-04-22T04:18:47.489Z,15.70
2018-04-22T04:19:47.415Z,15.77
2018-04-22T04:20:47.347Z,15.73
2018-04-22T04:21:47.263Z,15.75
2018-04-22T04:22:47.192Z,15.73
2018-04-22T04:23:47.117Z,15.68
2018-04-22T04:24:47.047Z,15.72
2018-04-22T04:25:46.969Z,15.68
2018-04-22T04:26:46.897Z,15.68
2018-04-22T04:27:46.823Z,15.64
2018-04-22T04:28:46.745Z,15.64
2018-04-22T04:29:46.671Z,15.65
2018-04-22T04:30:46.630Z,15.65
2018-04-22T04:31:46.525Z,15.59
2018-04-22T04:32:46.448Z,15.68
2018-04-22T04:33:46.371Z,15.61
2018-04-22T04:34:46.298Z,15.68
2018-04-22T04:35:46.226Z,15.68
2018-04-22T04:36:46.150Z,15.59
2018-04-22T04:37:46.074Z,15.70
2018-04-22T04:40:28.672Z,15.57
2018-04-22T04:41:28.509Z,15.42
2018-04-22T04:42:28.439Z,15.49
2018-04-22T04:43:28.404Z,15.36
2018-04-22T04:44:28.282Z,15.37
2018-04-22T04:45:28.208Z,15.27
2018-04-22T04:46:28.138Z,15.36
2018-04-22T04:47:28.061Z,15.28
2018-04-22T04:48:27.997Z,15.25
2018-04-22T04:49:27.912Z,15.24
2018-04-22T04:50:27.840Z,15.22
2018-04-22T04:51:27.761Z,15.28
2018-04-22T04:52:27.688Z,15.31
2018-04-22T04:53:27.613Z,15.25
2018-04-22T04:54:27.536Z,15.25
2018-04-22T04:55:27.463Z,15.35
2018-04-22T04:56:27.396Z,15.22
2018-04-22T04:57:27.315Z,15.22
2018-04-22T04:58:27.238Z,15.11
2018-04-22T04:59:27.164Z,15.14
2018-04-22T05:00:27.091Z,15.15
2018-04-22T05:01:27.017Z,15.14
2018-04-22T05:02:26.939Z,15.14
2018-04-22T05:03:26.865Z,15.14
2018-04-22T05:04:26.793Z,15.11
2018-04-22T05:05:26.721Z,15.10
2018-04-22T05:06:26.653Z,15.17
2018-04-22T05:07:26.567Z,15.14
2018-04-22T05:08:26.495Z,15.11
2018-04-22T05:09:26.416Z,15.25
2018-04-22T05:10:26.341Z,15.24
2018-04-22T05:11:26.270Z,15.33
2018-04-22T05:12:26.206Z,15.31
2018-04-22T05:13:26.144Z,15.31
2018-04-22T05:14:26.044Z,15.22
2018-04-22T05:15:25.972Z,15.28
2018-04-22T05:16:25.912Z,15.28
2018-04-22T05:17:25.823Z,15.22
2018-04-22T05:18:25.745Z,15.18
2018-04-22T05:19:25.671Z,15.27
2018-04-22T05:20:25.595Z,15.29
2018-04-22T05:21:25.543Z,15.22
2018-04-22T05:22:25.461Z,15.18
2018-04-22T05:23:25.374Z,15.19
2018-04-22T05:24:25.341Z,15.10
2018-04-22T05:25:25.232Z,15.15
2018-04-22T05:26:25.151Z,15.18
2018-04-22T05:27:25.073Z,15.15
2018-04-22T05:28:25.000Z,15.22
2018-04-22T05:29:24.935Z,15.28
2018-04-22T05:30:24.870Z,15.18
2018-04-22T05:31:24.777Z,15.35
2018-04-22T05:32:24.717Z,15.28
2018-04-22T05:33:24.631Z,15.35
2018-04-22T05:34:24.560Z,15.39
2018-04-22T05:35:24.481Z,15.43
2018-04-22T05:36:24.447Z,15.51
2018-04-22T05:37:24.330Z,15.58
2018-04-22T05:38:24.255Z,15.59
2018-04-22T05:39:24.196Z,15.62
2018-04-22T05:40:24.105Z,15.72
2018-04-22T05:41:24.032Z,15.77
2018-04-22T05:42:23.977Z,15.83
2018-04-22T05:43:23.881Z,15.86
2018-04-22T05:44:23.817Z,15.94
2018-04-22T05:45:24.044Z,15.86
2018-04-22T05:46:23.665Z,15.94
2018-04-22T05:47:23.589Z,16.04
2018-04-22T05:48:23.512Z,15.97
2018-04-22T05:49:23.443Z,16.09
2018-04-22T05:50:23.362Z,16.04
2018-04-22T05:51:23.295Z,16.16
2018-04-22T05:52:23.218Z,16.15
2018-04-22T05:53:23.140Z,16.12
2018-04-22T05:54:23.071Z,16.15
2018-04-22T05:55:22.989Z,16.26
2018-04-22T05:56:22.918Z,16.26
2018-04-22T05:57:22.842Z,16.17
2018-04-22T05:58:22.771Z,16.23
2018-04-22T05:59:22.698Z,16.26
2018-04-22T06:00:22.638Z,16.24
2018-04-22T06:01:22.548Z,16.29
2018-04-22T06:02:22.472Z,16.36
2018-04-22T06:03:22.406Z,16.38
2018-04-22T06:04:22.326Z,16.28
2018-04-22T06:05:22.258Z,16.36
2018-04-22T06:06:22.193Z,16.35
2018-04-22T06:07:22.102Z,16.42
2018-04-22T06:08:22.029Z,16.50
2018-04-22T06:09:21.955Z,16.58
2018-04-22T06:10:21.897Z,16.58
2018-04-22T06:11:21.809Z,16.51
2018-04-22T06:12:21.733Z,16.60
2018-04-22T06:13:21.664Z,16.58
2018-04-22T06:14:21.596Z,16.69
2018-04-22T06:15:21.521Z,16.72
2018-04-22T06:16:21.443Z,16.68
2018-04-22T06:17:21.413Z,16.81
2018-04-22T06:18:21.296Z,16.86
2018-04-22T06:19:21.220Z,16.93
2018-04-22T06:20:21.145Z,16.87
2018-04-22T06:21:21.071Z,17.05
2018-04-22T06:22:20.997Z,17.09
2018-04-22T06:23:20.925Z,17.09
2018-04-22T06:24:20.853Z,17.20
2018-04-22T06:25:20.776Z,17.19
2018-04-22T06:26:20.705Z,17.20
2018-04-22T06:27:20.633Z,17.23
2018-04-22T06:28:20.587Z,17.29
2018-04-22T06:29:20.484Z,17.24
2018-04-22T06:30:20.423Z,17.34
2018-04-22T06:31:20.336Z,17.41
2018-04-22T06:32:20.262Z,17.44
2018-04-22T06:33:20.193Z,17.44
2018-04-22T06:34:20.130Z,17.54
2018-04-22T06:35:20.051Z,17.57
2018-04-22T06:36:19.970Z,17.54
2018-04-22T06:37:19.898Z,17.64
2018-04-22T06:38:19.823Z,17.67
2018-04-22T06:39:19.767Z,17.67
2018-04-22T06:40:19.685Z,17.82
2018-04-22T06:41:19.606Z,17.78
2018-04-22T06:42:19.532Z,17.70
2018-04-22T06:43:19.455Z,17.74
2018-04-22T06:44:19.390Z,17.74
2018-04-22T06:45:19.315Z,17.82
2018-04-22T06:46:19.240Z,17.85
2018-04-22T06:47:19.168Z,17.85
2018-04-22T06:48:19.093Z,17.95
2018-04-22T06:49:19.029Z,17.98
2018-04-22T06:50:18.946Z,18.08
2018-04-22T06:51:18.875Z,18.05
2018-04-22T06:52:18.800Z,18.04
2018-04-22T06:53:18.751Z,18.00
2018-04-22T06:54:18.655Z,18.08
2018-04-22T06:55:18.582Z,18.18
2018-04-22T06:56:18.514Z,18.26
2018-04-22T06:57:18.444Z,18.29
2018-04-22T06:58:18.364Z,18.25
2018-04-22T06:59:18.309Z,18.35
2018-04-22T07:00:18.220Z,18.34
2018-04-22T07:01:18.146Z,18.29
2018-04-22T07:02:18.078Z,18.29
2018-04-22T07:03:18.008Z,18.43
2018-04-22T07:04:17.930Z,18.34
2018-04-22T07:05:17.859Z,18.34
2018-04-22T07:06:17.786Z,18.38
2018-04-22T07:07:17.711Z,18.38
2018-04-22T07:08:17.638Z,18.50
2018-04-22T07:09:17.568Z,18.47
2018-04-22T07:10:17.493Z,18.55
2018-04-22T07:11:17.421Z,18.55
2018-04-22T07:12:17.349Z,18.62
2018-04-22T07:13:17.275Z,18.66
2018-04-22T07:14:17.203Z,18.63
2018-04-22T07:15:17.132Z,18.73
2018-04-22T07:16:17.059Z,18.71
2018-04-22T07:17:16.989Z,18.78
2018-04-22T07:18:16.920Z,18.81
2018-04-22T07:19:16.851Z,18.80
2018-04-22T07:20:16.842Z,18.80
2018-04-22T07:21:16.698Z,18.83
2018-04-22T07:22:16.625Z,18.80
2018-04-22T07:23:16.554Z,18.88
2018-04-22T07:24:16.487Z,18.95
2018-04-22T07:25:16.410Z,18.93
2018-04-22T07:26:16.340Z,18.92
2018-04-22T07:27:16.270Z,18.98
2018-04-22T07:28:16.192Z,19.11
2018-04-22T07:29:16.178Z,19.00
2018-04-22T07:30:16.048Z,19.09
2018-04-22T07:31:15.975Z,19.18
2018-04-22T07:32:15.947Z,19.18
2018-04-22T07:33:15.835Z,19.22
2018-04-22T07:34:15.760Z,19.30
2018-04-22T07:35:15.690Z,19.30
2018-04-22T07:36:15.621Z,19.31
2018-04-22T07:37:15.544Z,19.33
2018-04-22T07:38:15.479Z,19.34
2018-04-22T07:39:15.401Z,19.33
2018-04-22T07:40:15.333Z,19.37
2018-04-22T07:41:15.301Z,19.40
2018-04-22T07:42:15.186Z,19.55
2018-04-22T07:43:15.114Z,19.52
2018-04-22T07:44:15.045Z,19.55
2018-04-22T07:45:14.972Z,19.48
2018-04-22T07:46:14.901Z,19.59
2018-04-22T07:47:14.827Z,19.62
2018-04-22T07:48:14.760Z,19.64
2018-04-22T07:49:14.683Z,19.71
2018-04-22T07:50:14.618Z,19.81
2018-04-22T07:51:14.542Z,19.81
2018-04-22T07:52:14.478Z,19.79
2018-04-22T07:53:14.406Z,19.85
2018-04-22T07:54:14.324Z,19.86
2018-04-22T07:55:14.251Z,19.89
2018-04-22T07:56:14.182Z,19.92
2018-04-22T07:57:14.110Z,19.96
2018-04-22T07:58:14.042Z,19.91
2018-04-22T07:59:13.973Z,19.99
2018-04-22T08:00:13.898Z,20.04
2018-04-22T08:01:13.828Z,20.04
2018-04-22T08:02:13.783Z,20.13
2018-04-22T08:03:13.681Z,20.13
2018-04-22T08:04:13.609Z,20.25
2018-04-22T08:05:13.540Z,20.24
2018-04-22T08:06:13.467Z,20.26
2018-04-22T08:07:13.406Z,20.29
2018-04-22T08:08:13.329Z,20.37
2018-04-22T08:09:13.255Z,20.37
2018-04-22T08:10:13.184Z,20.43
2018-04-22T08:11:13.111Z,20.44
2018-04-22T08:12:13.043Z,20.48
2018-04-22T08:13:12.970Z,20.58
2018-04-22T08:14:12.899Z,20.56
2018-04-22T08:15:12.825Z,20.52
2018-04-22T08:16:12.766Z,20.65
2018-04-22T08:17:12.685Z,20.66
2018-04-22T08:18:12.612Z,20.70
2018-04-22T08:19:12.551Z,20.70
2018-04-22T08:20:12.471Z,20.75
2018-04-22T08:21:12.402Z,20.77
2018-04-22T08:22:12.329Z,20.82
2018-04-22T08:23:12.260Z,20.92
2018-04-22T08:24:12.196Z,20.87
2018-04-22T08:25:12.118Z,20.88
2018-04-22T08:26:12.045Z,21.02
2018-04-22T08:27:11.974Z,20.96
2018-04-22T08:28:11.946Z,21.06
2018-04-22T08:29:11.835Z,21.14
2018-04-22T08:30:11.768Z,21.12
2018-04-22T08:31:11.691Z,21.14
2018-04-22T08:32:11.627Z,21.25
2018-04-22T08:33:11.554Z,21.30
2018-04-22T08:34:11.477Z,21.24
2018-04-22T08:35:11.447Z,21.36
2018-04-22T08:36:11.343Z,21.45
2018-04-22T08:37:11.268Z,21.40
2018-04-22T08:38:11.204Z,21.52
2018-04-22T08:39:11.126Z,21.50
2018-04-22T08:40:11.056Z,21.58
2018-04-22T08:41:10.987Z,21.60
2018-04-22T08:42:10.913Z,21.57
2018-04-22T08:43:10.870Z,21.60
2018-04-22T08:44:10.775Z,21.58
2018-04-22T08:45:10.707Z,21.69
2018-04-22T08:46:10.645Z,21.80
2018-04-22T08:47:10.574Z,21.77
2018-04-22T08:48:10.510Z,21.76
2018-04-22T08:49:10.427Z,21.72
2018-04-22T08:50:10.350Z,21.80
2018-04-22T08:51:10.297Z,21.85
2018-04-22T08:52:10.224Z,21.95
2018-04-22T08:53:10.141Z,21.95
2018-04-22T08:54:10.067Z,21.98
2018-04-22T08:55:10.008Z,22.00
2018-04-22T08:56:09.932Z,22.07
2018-04-22T08:57:09.860Z,22.02
2018-04-22T08:58:09.788Z,22.17
2018-04-22T08:59:09.728Z,22.07
2018-04-22T09:00:09.678Z,22.13
2018-04-22T09:01:09.581Z,22.25
2018-04-22T09:02:09.544Z,22.26
2018-04-22T09:03:09.437Z,22.32
2018-04-22T09:04:09.369Z,22.33
2018-04-22T09:05:09.299Z,22.36
2018-04-22T09:06:09.293Z,22.35
2018-04-22T09:07:09.158Z,22.44
2018-04-22T09:08:09.087Z,22.47
2018-04-22T09:09:09.026Z,22.57
2018-04-22T09:10:08.952Z,22.66
2018-04-22T09:11:08.878Z,22.62
2018-04-22T09:12:08.812Z,22.68
2018-04-22T09:13:08.747Z,22.80
2018-04-22T09:14:08.669Z,22.80
2018-04-22T09:15:08.600Z,22.80
2018-04-22T09:16:08.539Z,22.85
2018-04-22T09:17:08.460Z,22.83
2018-04-22T09:18:08.394Z,22.83
2018-04-22T09:19:08.322Z,22.93
2018-04-22T09:20:08.254Z,22.93
2018-04-22T09:21:08.183Z,22.88
2018-04-22T09:22:08.113Z,22.90
2018-04-22T09:23:08.044Z,22.99
2018-04-22T09:24:07.974Z,22.98
2018-04-22T09:25:07.907Z,23.03
2018-04-22T09:26:07.835Z,23.05
2018-04-22T09:27:07.763Z,23.05
2018-04-22T09:28:07.695Z,22.96
2018-04-22T09:29:07.630Z,23.10
2018-04-22T09:30:07.559Z,23.09
2018-04-22T09:31:07.488Z,22.96
2018-04-22T09:32:07.436Z,23.03
2018-04-22T09:33:07.402Z,23.08
2018-04-22T09:34:07.280Z,23.08
2018-04-22T09:35:07.209Z,22.99
2018-04-22T09:36:07.144Z,23.03
2018-04-22T09:37:07.075Z,23.21
2018-04-22T09:38:07.003Z,23.18
2018-04-22T09:39:06.936Z,23.23
2018-04-22T09:40:06.867Z,23.18
2018-04-22T09:41:06.796Z,23.36
2018-04-22T09:42:06.727Z,23.39
2018-04-22T09:43:06.692Z,23.32
2018-04-22T09:44:06.605Z,23.34
2018-04-22T09:45:06.522Z,23.39
2018-04-22T09:46:06.450Z,23.43
2018-04-22T09:47:06.381Z,23.44
2018-04-22T09:48:06.310Z,23.43
2018-04-22T09:49:06.243Z,23.50
2018-04-22T09:50:06.174Z,23.50
2018-04-22T09:51:06.104Z,23.51
2018-04-22T09:52:06.036Z,23.58
2018-04-22T09:53:05.969Z,23.56
2018-04-22T09:54:05.900Z,23.62
2018-04-22T09:55:05.828Z,23.63
2018-04-22T09:56:05.763Z,23.66
2018-04-22T09:57:05.692Z,23.71
2018-04-22T09:58:05.680Z,23.80
2018-04-22T09:59:05.552Z,23.80
2018-04-22T10:00:05.484Z,23.80
2018-04-22T10:01:05.416Z,23.86
2018-04-22T10:02:05.345Z,23.86
2018-04-22T10:03:05.283Z,23.93
2018-04-22T10:04:05.208Z,24.03
2018-04-22T10:05:05.141Z,23.96
2018-04-22T10:06:05.071Z,24.03
2018-04-22T10:07:05.012Z,24.06
2018-04-22T10:08:04.934Z,24.23
2018-04-22T10:09:04.870Z,24.24
2018-04-22T10:10:04.795Z,24.23
2018-04-22T10:11:04.728Z,24.18
2018-04-22T10:12:04.658Z,24.23
2018-04-22T10:13:04.607Z,24.21
2018-04-22T10:14:04.521Z,24.23
2018-04-22T10:15:04.452Z,24.33
2018-04-22T10:16:04.385Z,24.36
2018-04-22T10:17:04.316Z,24.47
2018-04-22T10:18:04.245Z,24.57
2018-04-22T10:19:04.179Z,24.63
2018-04-22T10:20:04.109Z,24.68
2018-04-22T10:21:04.043Z,24.73
2018-04-22T10:22:03.975Z,24.74
2018-04-22T10:23:03.906Z,24.77
2018-04-22T10:24:03.837Z,24.93
2018-04-22T10:25:03.769Z,24.93
2018-04-22T10:26:03.704Z,24.96
2018-04-22T10:27:03.632Z,25.10
2018-04-22T10:28:03.577Z,25.07
2018-04-22T10:29:03.497Z,25.10
2018-04-22T10:30:03.428Z,25.13
2018-04-22T10:31:03.359Z,25.22
2018-04-22T10:32:03.293Z,25.13
2018-04-22T10:33:03.224Z,25.21
2018-04-22T10:34:03.156Z,25.22
2018-04-22T10:35:03.093Z,25.23
2018-04-22T10:36:03.051Z,25.26
2018-04-22T10:37:02.953Z,25.35
2018-04-22T10:38:02.883Z,25.38
2018-04-22T10:39:02.816Z,25.41
2018-04-22T10:40:02.763Z,25.46
2018-04-22T10:41:02.687Z,25.44
2018-04-22T10:42:02.677Z,25.63
2018-04-22T10:43:02.546Z,25.63
2018-04-22T10:44:02.480Z,25.75
2018-04-22T10:45:02.413Z,25.84
2018-04-22T10:46:02.346Z,25.84
2018-04-22T10:47:02.279Z,25.83
2018-04-22T10:48:02.209Z,25.85
2018-04-22T10:49:02.140Z,25.93
2018-04-22T10:50:02.075Z,25.98
2018-04-22T10:51:02.020Z,25.98
2018-04-22T10:52:01.944Z,26.05
2018-04-22T10:53:01.881Z,26.09
2018-04-22T10:54:01.806Z,26.23
2018-04-22T10:55:01.829Z,26.28
2018-04-22T10:56:01.673Z,26.26
2018-04-22T10:57:01.621Z,26.36
2018-04-22T10:58:01.615Z,26.52
2018-04-22T10:59:01.471Z,26.45
2018-04-22T11:00:01.404Z,26.55
2018-04-22T11:01:01.337Z,26.56
2018-04-22T11:02:01.279Z,26.53
2018-04-22T11:03:01.212Z,26.51
2018-04-22T11:04:01.139Z,26.53
2018-04-22T11:05:01.107Z,26.48
2018-04-22T11:06:01.002Z,26.65
2018-04-22T11:07:00.936Z,26.60
2018-04-22T11:08:00.867Z,26.63
2018-04-22T11:09:00.804Z,26.73
2018-04-22T11:10:00.738Z,26.75
2018-04-22T11:11:01.315Z,26.75
2018-04-22T11:12:00.601Z,26.75
2018-04-22T11:13:00.535Z,26.75
2018-04-22T11:14:00.470Z,26.80
2018-04-22T11:15:00.405Z,26.84
2018-04-22T11:16:00.335Z,26.88
2018-04-22T11:17:00.271Z,26.93
2018-04-22T11:18:02.751Z,26.97
2018-04-22T11:19:00.137Z,27.00
2018-04-22T11:20:00.071Z,27.11
2018-04-22T11:21:00.004Z,27.25
2018-04-22T11:21:59.939Z,27.21
2018-04-22T11:22:59.872Z,27.26
2018-04-22T11:23:59.803Z,27.40
2018-04-22T11:24:59.739Z,27.39
2018-04-22T11:25:59.680Z,27.42
2018-04-22T11:26:59.606Z,27.47
2018-04-22T11:27:59.540Z,27.45
2018-04-22T11:28:59.472Z,27.55
2018-04-22T11:29:59.406Z,27.65
2018-04-22T11:30:59.339Z,27.68
2018-04-22T11:31:59.275Z,27.52
2018-04-22T11:32:59.213Z,27.51
2018-04-22T11:33:59.765Z,27.58
2018-04-22T11:34:59.075Z,27.60
2018-04-22T11:35:59.011Z,27.71
2018-04-22T11:36:58.957Z,27.74
2018-04-22T11:37:58.878Z,27.78
2018-04-22T11:38:58.856Z,27.78
2018-04-22T11:39:58.746Z,27.92
2018-04-22T11:40:58.679Z,27.90
2018-04-22T11:41:58.627Z,28.02
2018-04-22T11:42:58.552Z,28.01
2018-04-22T11:43:58.482Z,28.01
2018-04-22T11:44:58.420Z,28.07
2018-04-22T11:45:58.352Z,28.02
2018-04-22T11:46:58.288Z,28.14
2018-04-22T11:47:58.223Z,28.11
2018-04-22T11:48:58.155Z,28.11
2018-04-22T11:49:58.091Z,28.26
2018-04-22T11:50:58.029Z,28.23
2018-04-22T11:51:57.961Z,28.20
2018-04-22T11:52:57.892Z,28.20
2018-04-22T11:53:57.840Z,28.27
2018-04-22T11:54:57.769Z,28.48
2018-04-22T11:55:57.697Z,28.60
2018-04-22T11:56:57.633Z,28.62
2018-04-22T11:57:57.570Z,28.74
2018-04-22T11:58:57.501Z,28.76
2018-04-22T11:59:57.485Z,28.78
2018-04-22T12:00:57.370Z,28.85
2018-04-22T12:01:57.304Z,28.86
2018-04-22T12:02:57.238Z,28.93
2018-04-22T12:03:57.174Z,28.94
2018-04-22T12:04:57.110Z,29.04
2018-04-22T12:05:57.043Z,29.13
2018-04-22T12:06:56.980Z,29.13
2018-04-22T12:07:56.913Z,29.24
2018-04-22T12:08:56.855Z,29.42
2018-04-22T12:09:56.786Z,29.38
2018-04-22T12:10:56.735Z,29.54
2018-04-22T12:11:56.656Z,29.71
2018-04-22T12:12:56.593Z,29.86
2018-04-22T12:13:56.525Z,30.08
2018-04-22T12:14:56.464Z,30.15
2018-04-22T12:15:56.397Z,30.16
2018-04-22T12:16:56.338Z,30.24
2018-04-22T12:17:56.269Z,30.39
2018-04-22T12:18:56.226Z,30.35
2018-04-22T12:19:56.143Z,30.46
2018-04-22T12:20:56.083Z,30.80
2018-04-22T12:21:56.019Z,30.51
2018-04-22T12:22:55.959Z,30.46
2018-04-22T12:23:55.898Z,30.37
2018-04-22T12:24:55.836Z,30.53
2018-04-22T12:25:55.773Z,30.50
2018-04-22T12:26:55.712Z,30.84
2018-04-22T12:27:55.651Z,31.34
2018-04-22T12:28:55.604Z,31.85
2018-04-22T12:29:55.528Z,32.29
2018-04-22T12:30:55.485Z,32.12
2018-04-22T12:31:55.470Z,31.93
2018-04-22T12:32:55.349Z,31.96
2018-04-22T12:33:55.289Z,32.21
2018-04-22T12:34:55.230Z,32.68
2018-04-22T12:35:55.173Z,33.00
2018-04-22T12:36:55.114Z,33.53
2018-04-22T12:37:55.076Z,34.03
2018-04-22T12:38:54.997Z,34.17
2018-04-22T12:39:54.939Z,34.81
2018-04-22T12:40:54.883Z,35.29
2018-04-22T12:41:54.828Z,35.95
2018-04-22T12:42:54.767Z,36.43
2018-04-22T12:43:54.711Z,36.77
2018-04-22T12:44:54.656Z,36.77
2018-04-22T12:45:54.602Z,37.14
2018-04-22T12:46:54.545Z,37.51
2018-04-22T12:47:54.527Z,37.90
2018-04-22T12:48:54.438Z,38.08
2018-04-22T12:49:54.383Z,37.90
2018-04-22T12:50:54.324Z,36.89
2018-04-22T12:51:54.285Z,36.02
2018-04-22T12:52:54.217Z,36.58